Time;durP1;ratioP1;P1;durP2;ratioP2;P2;SDS_P1;SDS_P2;PMS_P1;PMS_P2;Temp;Humidity;BMP_temperature;BMP_pressure;BME280_temperature;BME280_humidity;BME280_pressure;Samples;Min_cycle;Max_cycle;Signal;HPM_P1;HPM_P2
2024/01/27 00:00:11;;;;;;;31.23;3.73;;;3.30;99.90;;;;;;5011926;28;20466;-88
2024/01/27 00:02:37;;;;;;;31.55;4.00;;;3.30;99.90;;;;;;5028998;28;20414;-89
2024/01/27 00:05:03;;;;;;;27.00;3.43;;;3.30;99.90;;;;;;5029863;28;20912;-89
2024/01/27 00:07:29;;;;;;;28.10;3.97;;;3.20;99.90;;;;;;5032545;28;20505;-89
2024/01/27 00:09:55;;;;;;;30.77;3.60;;;3.20;99.90;;;;;;5030566;28;20497;-89
2024/01/27 00:12:21;;;;;;;31.30;3.97;;;3.20;99.90;;;;;;5032326;28;20784;-89
2024/01/27 00:14:46;;;;;;;28.38;3.30;;;3.20;99.90;;;;;;5030390;28;20413;-89
2024/01/27 00:17:12;;;;;;;31.57;4.20;;;3.20;99.90;;;;;;5031889;28;20449;-89
2024/01/27 00:19:38;;;;;;;31.70;4.57;;;3.50;99.90;;;;;;5031402;28;20425;-90
2024/01/27 00:22:04;;;;;;;31.23;4.25;;;3.20;99.90;;;;;;5031279;28;20406;-88
2024/01/27 00:24:29;;;;;;;30.02;4.28;;;3.20;99.90;;;;;;5031696;28;20766;-89
2024/01/27 00:26:55;;;;;;;27.20;4.47;;;3.80;99.90;;;;;;5030215;28;20421;-89
2024/01/27 00:29:22;;;;;;;28.20;3.78;;;3.30;99.90;;;;;;5032337;28;20920;-88
2024/01/27 00:31:49;;;;;;;28.80;3.70;;;3.30;99.90;;;;;;5029533;28;20409;-90
2024/01/27 00:34:14;;;;;;;28.48;3.67;;;3.30;99.90;;;;;;5031663;28;20409;-88
2024/01/27 00:36:42;;;;;;;32.33;3.90;;;3.30;99.90;;;;;;5030924;28;20459;-88
2024/01/27 00:39:08;;;;;;;28.20;4.10;;;3.20;99.90;;;;;;5030556;28;20508;-89
2024/01/27 00:41:34;;;;;;;28.73;4.60;;;3.20;99.90;;;;;;5031579;28;20409;-89
2024/01/27 00:43:59;;;;;;;40.70;4.87;;;3.20;99.90;;;;;;5028939;28;20434;-89
2024/01/27 00:46:25;;;;;;;32.63;4.82;;;3.20;99.90;;;;;;5031664;28;20484;-88
2024/01/27 00:48:50;;;;;;;32.88;5.07;;;3.20;99.90;;;;;;5029892;28;20441;-89
2024/01/27 00:51:16;;;;;;;30.20;4.80;;;3.20;99.90;;;;;;5031713;28;20926;-89
2024/01/27 00:53:42;;;;;;;31.90;4.78;;;3.20;99.90;;;;;;5029617;28;20496;-89
2024/01/27 00:56:07;;;;;;;32.05;4.40;;;3.20;99.90;;;;;;5021351;28;20422;-88
2024/01/27 00:58:34;;;;;;;28.67;4.38;;;3.20;99.90;;;;;;5011319;28;20414;-89
2024/01/27 01:01:00;;;;;;;32.88;4.28;;;3.20;99.90;;;;;;5010075;28;20449;-89
2024/01/27 01:03:25;;;;;;;32.47;4.28;;;3.20;99.90;;;;;;5011407;28;20431;-89
2024/01/27 01:05:51;;;;;;;26.93;3.37;;;3.50;99.90;;;;;;5009442;28;20434;-89
2024/01/27 01:08:17;;;;;;;26.73;3.50;;;3.10;99.90;;;;;;5011718;28;21049;-89
2024/01/27 01:10:42;;;;;;;30.55;3.47;;;3.40;99.90;;;;;;5009858;28;20465;-89
2024/01/27 01:13:08;;;;;;;29.97;3.77;;;3.00;99.90;;;;;;5011478;28;20415;-90
2024/01/27 01:15:33;;;;;;;28.60;3.10;;;3.20;99.90;;;;;;5010408;28;20847;-90
2024/01/27 01:17:59;;;;;;;31.55;3.80;;;3.00;99.90;;;;;;5025931;28;20428;-89
2024/01/27 01:20:27;;;;;;;24.88;3.20;;;3.00;99.90;;;;;;5031288;28;20445;-89
2024/01/27 01:22:53;;;;;;;28.58;3.30;;;2.90;99.90;;;;;;5028899;28;20512;-89
2024/01/27 01:25:19;;;;;;;25.15;3.15;;;3.60;99.90;;;;;;5029101;28;20500;-90
2024/01/27 01:27:49;;;;;;;27.05;3.47;;;3.00;99.90;;;;;;5009055;28;20422;-88
2024/01/27 01:30:16;;;;;;;29.30;4.10;;;3.20;99.90;;;;;;5011130;28;20411;-89
2024/01/27 01:32:42;;;;;;;26.52;4.25;;;2.90;99.90;;;;;;5009928;28;20418;-88
2024/01/27 01:35:09;;;;;;;27.67;3.10;;;3.20;99.90;;;;;;5010420;28;20415;-88
2024/01/27 01:37:35;;;;;;;26.63;3.97;;;2.90;99.90;;;;;;5011180;28;20415;-88
2024/01/27 01:40:02;;;;;;;29.03;3.83;;;2.90;99.90;;;;;;5009043;28;20406;-89
2024/01/27 01:42:29;;;;;;;27.55;4.22;;;2.90;99.90;;;;;;5011141;28;20782;-89
2024/01/27 01:44:54;;;;;;;27.42;4.80;;;2.90;99.90;;;;;;5009021;28;20414;-89
2024/01/27 01:47:22;;;;;;;25.35;4.55;;;2.90;99.90;;;;;;5019902;28;20405;-89
2024/01/27 01:49:48;;;;;;;27.35;3.58;;;2.80;99.90;;;;;;5028927;28;20417;-88
2024/01/27 01:52:19;;;;;;;25.20;3.43;;;2.90;99.90;;;;;;5030204;28;20428;-88
2024/01/27 01:54:48;;;;;;;25.73;3.35;;;2.70;99.90;;;;;;5030199;28;20432;-89
2024/01/27 01:57:15;;;;;;;25.52;3.88;;;2.70;99.90;;;;;;5032717;28;20402;-87
2024/01/27 01:59:41;;;;;;;25.58;4.50;;;3.10;99.90;;;;;;5034600;28;20921;-88
2024/01/27 02:02:08;;;;;;;29.67;4.30;;;2.60;99.90;;;;;;5032599;28;20433;-89
2024/01/27 02:04:41;;;;;;;25.23;4.18;;;2.60;99.90;;;;;;5034149;28;20512;-89
2024/01/27 02:07:06;;;;;;;26.27;3.30;;;2.50;99.90;;;;;;5032163;28;20413;-88
2024/01/27 02:09:32;;;;;;;32.83;3.83;;;2.50;99.90;;;;;;5034325;28;20500;-88
2024/01/27 02:11:58;;;;;;;29.63;3.50;;;2.60;99.90;;;;;;5033754;28;20496;-89
2024/01/27 02:14:26;;;;;;;23.45;3.35;;;2.50;99.90;;;;;;5033043;28;20496;-88
2024/01/27 02:16:52;;;;;;;21.92;3.85;;;2.40;99.90;;;;;;5038460;28;20439;-88
2024/01/27 02:19:17;;;;;;;24.90;3.95;;;2.80;99.90;;;;;;5051946;28;20491;-88
2024/01/27 02:21:43;;;;;;;28.85;4.95;;;2.40;99.90;;;;;;5034573;28;20408;-87
2024/01/27 02:24:09;;;;;;;27.97;5.03;;;2.30;99.90;;;;;;5032222;28;20839;-87
2024/01/27 02:26:35;;;;;;;26.05;4.97;;;2.30;99.90;;;;;;5033895;28;20792;-88
2024/01/27 02:29:00;;;;;;;29.63;4.80;;;2.30;99.90;;;;;;5032998;28;20412;-88
2024/01/27 02:31:26;;;;;;;32.93;5.00;;;2.30;99.90;;;;;;5032553;28;21140;-88
2024/01/27 02:33:52;;;;;;;30.08;4.22;;;2.30;99.90;;;;;;5033607;28;20455;-88
2024/01/27 02:36:18;;;;;;;34.45;4.53;;;2.40;99.90;;;;;;5031840;28;20737;-89
2024/01/27 02:38:43;;;;;;;28.10;4.20;;;2.30;99.90;;;;;;5033690;28;20955;-89
2024/01/27 02:41:12;;;;;;;24.57;3.50;;;2.30;99.90;;;;;;5031626;28;20451;-88
2024/01/27 02:43:38;;;;;;;26.45;3.78;;;2.30;99.90;;;;;;5033751;28;20440;-88
2024/01/27 02:46:11;;;;;;;31.00;5.10;;;2.40;99.90;;;;;;5032240;28;21015;-89
2024/01/27 02:48:40;;;;;;;22.43;4.03;;;2.20;99.90;;;;;;5032377;28;20413;-87
2024/01/27 02:51:06;;;;;;;24.98;3.97;;;2.20;99.90;;;;;;5033296;28;20445;-89
2024/01/27 02:53:31;;;;;;;32.75;4.63;;;2.30;99.90;;;;;;5023794;28;20442;-89
2024/01/27 02:55:57;;;;;;;26.92;3.35;;;2.10;99.90;;;;;;5013544;28;20434;-88
2024/01/27 02:58:23;;;;;;;29.80;3.97;;;2.10;99.90;;;;;;5027765;28;20411;-89
2024/01/27 03:00:48;;;;;;;31.23;4.63;;;2.20;99.90;;;;;;5013312;28;20410;-88
2024/01/27 03:03:15;;;;;;;25.08;4.22;;;2.20;99.90;;;;;;5011987;28;20786;-87
2024/01/27 03:05:40;;;;;;;33.42;5.05;;;2.20;99.90;;;;;;5012750;28;20508;-88
2024/01/27 03:08:06;;;;;;;27.83;4.47;;;2.20;99.90;;;;;;5011998;28;20930;-89
2024/01/27 03:10:32;;;;;;;33.63;4.87;;;2.20;99.90;;;;;;5011651;28;20488;-89
2024/01/27 03:12:58;;;;;;;30.83;4.27;;;2.20;99.90;;;;;;5013485;28;20497;-89
2024/01/27 03:15:23;;;;;;;27.42;3.63;;;2.20;99.90;;;;;;5025086;28;20416;-89
2024/01/27 03:17:49;;;;;;;30.30;4.60;;;2.10;99.90;;;;;;5032865;28;20406;-88
2024/01/27 03:20:15;;;;;;;29.17;4.20;;;2.10;99.90;;;;;;5030833;28;20411;-88
2024/01/27 03:22:41;;;;;;;23.65;3.80;;;2.10;99.90;;;;;;5032695;28;20409;-89
2024/01/27 03:25:13;;;;;;;27.25;5.13;;;2.00;99.90;;;;;;5048648;28;20401;-88
2024/01/27 03:27:39;;;;;;;28.17;4.93;;;2.00;99.90;;;;;;5031294;28;20397;-89
2024/01/27 03:30:05;;;;;;;28.23;3.60;;;2.10;99.90;;;;;;5022592;28;20418;-88
2024/01/27 03:32:34;;;;;;;29.83;3.55;;;2.10;99.90;;;;;;5011116;28;20805;-88
2024/01/27 03:35:00;;;;;;;23.50;3.70;;;2.10;99.90;;;;;;5012557;28;20411;-88
2024/01/27 03:37:26;;;;;;;27.45;4.22;;;2.10;99.90;;;;;;5010766;28;20403;-89
2024/01/27 03:39:51;;;;;;;30.15;4.90;;;2.10;99.90;;;;;;5012713;28;20842;-88
2024/01/27 03:42:17;;;;;;;32.30;5.20;;;2.10;99.90;;;;;;5023129;28;20503;-89
2024/01/27 03:44:43;;;;;;;31.87;4.60;;;2.10;99.90;;;;;;5031678;28;20770;-87
2024/01/27 03:47:08;;;;;;;27.30;4.78;;;2.10;99.90;;;;;;5032169;28;20422;-88
2024/01/27 03:49:34;;;;;;;29.23;4.97;;;2.10;99.90;;;;;;5030706;28;20436;-89
2024/01/27 03:52:00;;;;;;;29.07;4.43;;;2.20;99.90;;;;;;5032185;28;20455;-89
2024/01/27 03:54:25;;;;;;;29.90;4.43;;;2.20;99.90;;;;;;5030248;28;20545;-88
2024/01/27 03:56:51;;;;;;;30.23;3.92;;;2.20;99.90;;;;;;5032656;28;20417;-88
2024/01/27 03:59:17;;;;;;;26.40;3.00;;;2.20;99.90;;;;;;5030785;28;20836;-88
2024/01/27 04:01:43;;;;;;;27.77;3.13;;;2.20;99.90;;;;;;5032226;28;20420;-88
2024/01/27 04:04:09;;;;;;;27.88;3.38;;;2.60;99.90;;;;;;5013497;28;21052;-89
2024/01/27 04:06:38;;;;;;;30.47;3.47;;;2.20;99.90;;;;;;5016001;28;20523;-88
2024/01/27 04:09:05;;;;;;;29.13;3.53;;;2.20;99.90;;;;;;5025419;28;20408;-89
2024/01/27 04:11:30;;;;;;;24.27;3.95;;;2.40;99.90;;;;;;5030313;28;20413;-89
2024/01/27 04:13:56;;;;;;;26.97;4.73;;;2.30;99.90;;;;;;5032158;28;20513;-89
2024/01/27 04:16:22;;;;;;;27.63;5.63;;;2.00;99.90;;;;;;5030361;28;20515;-88
2024/01/27 04:18:48;;;;;;;29.80;5.00;;;2.20;99.90;;;;;;5031683;28;20500;-89
2024/01/27 04:21:13;;;;;;;28.98;4.40;;;2.10;99.90;;;;;;5030970;28;20780;-88
2024/01/27 04:23:39;;;;;;;29.70;4.60;;;2.10;99.90;;;;;;5047350;28;20951;-88
2024/01/27 04:26:06;;;;;;;32.90;5.47;;;2.10;99.90;;;;;;5031698;28;20422;-88
2024/01/27 04:28:32;;;;;;;31.20;5.20;;;2.10;99.90;;;;;;5029880;28;20801;-87
2024/01/27 04:30:57;;;;;;;26.73;4.70;;;2.30;99.90;;;;;;5030675;28;20398;-88
2024/01/27 04:33:23;;;;;;;41.20;6.75;;;2.10;99.90;;;;;;5027902;28;20405;-88
2024/01/27 04:35:49;;;;;;;30.48;4.57;;;2.20;99.90;;;;;;5030612;28;20908;-88
2024/01/27 04:38:15;;;;;;;28.30;4.40;;;2.10;99.90;;;;;;5029056;28;20504;-88
2024/01/27 04:40:40;;;;;;;30.33;3.80;;;1.90;99.90;;;;;;5030817;28;20401;-89
2024/01/27 04:43:06;;;;;;;25.73;3.37;;;2.10;99.90;;;;;;5030910;28;20468;-87
2024/01/27 04:45:32;;;;;;;31.92;4.15;;;2.30;99.90;;;;;;5023281;28;20554;-89
2024/01/27 04:47:57;;;;;;;30.23;4.80;;;2.20;99.90;;;;;;5028074;28;20407;-88
2024/01/27 04:50:23;;;;;;;27.87;4.80;;;2.30;99.90;;;;;;5009223;28;20415;-88
2024/01/27 04:52:49;;;;;;;26.43;3.97;;;2.30;99.90;;;;;;5011078;28;20411;-88
2024/01/27 04:55:15;;;;;;;30.75;4.90;;;2.20;99.90;;;;;;5021069;28;20501;-88
2024/01/27 04:57:40;;;;;;;31.55;5.20;;;2.00;99.90;;;;;;5030687;28;20463;-88
2024/01/27 05:00:07;;;;;;;26.52;5.28;;;2.20;99.90;;;;;;5029806;28;20406;-87
2024/01/27 05:02:33;;;;;;;33.97;5.50;;;2.20;99.90;;;;;;5030398;28;20868;-86
2024/01/27 05:04:59;;;;;;;32.40;5.47;;;2.20;99.90;;;;;;5030188;28;20975;-88
2024/01/27 05:07:24;;;;;;;30.80;5.37;;;2.10;99.90;;;;;;5029079;28;20489;-88
2024/01/27 05:09:50;;;;;;;28.80;5.27;;;2.10;99.90;;;;;;5031001;28;20464;-88
2024/01/27 05:12:16;;;;;;;23.63;4.57;;;2.10;99.90;;;;;;5028662;28;20409;-88
2024/01/27 05:14:45;;;;;;;31.48;4.43;;;2.20;99.90;;;;;;5030707;28;20417;-90
2024/01/27 05:17:11;;;;;;;31.13;4.22;;;2.10;99.90;;;;;;5029075;28;20425;-88
2024/01/27 05:19:36;;;;;;;32.67;5.10;;;2.10;99.90;;;;;;5029889;28;20410;-88
2024/01/27 05:22:02;;;;;;;24.67;2.97;;;2.00;99.90;;;;;;5030163;28;20432;-88
2024/01/27 05:24:28;;;;;;;25.50;3.40;;;2.10;99.90;;;;;;5028592;28;20425;-89
2024/01/27 05:26:53;;;;;;;25.02;3.17;;;2.10;99.90;;;;;;5030841;28;20431;-88
2024/01/27 05:29:19;;;;;;;22.67;3.13;;;2.10;99.90;;;;;;5028727;28;20413;-87
2024/01/27 05:31:44;;;;;;;28.50;4.13;;;2.10;99.90;;;;;;5016109;28;20415;-88
2024/01/27 05:34:11;;;;;;;25.55;4.35;;;2.10;99.90;;;;;;5009047;28;20411;-87
2024/01/27 05:36:36;;;;;;;30.85;4.22;;;2.10;99.90;;;;;;5018149;28;20401;-88
2024/01/27 05:39:05;;;;;;;27.63;4.32;;;2.10;99.90;;;;;;5028950;28;20424;-88
2024/01/27 05:41:31;;;;;;;25.20;4.40;;;2.10;99.90;;;;;;5030371;28;20446;-89
2024/01/27 05:43:57;;;;;;;26.85;4.68;;;2.10;99.90;;;;;;5046385;28;20484;-89
2024/01/27 05:46:26;;;;;;;29.95;3.97;;;2.10;99.90;;;;;;5027435;28;20501;-88
2024/01/27 05:48:53;;;;;;;27.25;3.45;;;2.20;99.90;;;;;;5029340;28;20414;-88
2024/01/27 05:51:30;;;;;;;31.40;3.80;;;2.20;99.90;;;;;;5028299;28;20424;-88
2024/01/27 05:53:55;;;;;;;33.15;4.35;;;2.20;99.90;;;;;;5046585;28;20410;-89
2024/01/27 05:56:21;;;;;;;30.27;4.20;;;2.20;99.90;;;;;;5028816;28;20483;-88
2024/01/27 05:58:49;;;;;;;28.17;4.10;;;2.20;99.90;;;;;;5045861;28;20975;-88
2024/01/27 06:01:17;;;;;;;29.80;4.13;;;2.10;99.90;;;;;;5046336;28;20497;-88
2024/01/27 06:03:43;;;;;;;24.02;4.57;;;2.10;99.90;;;;;;5027421;28;21270;-88
2024/01/27 06:06:09;;;;;;;25.30;4.57;;;2.10;99.90;;;;;;5029451;28;20465;-88
2024/01/27 06:08:35;;;;;;;31.90;4.10;;;2.20;99.90;;;;;;5008498;28;20403;-88
2024/01/27 06:11:01;;;;;;;29.90;4.90;;;2.10;99.90;;;;;;5010033;28;20411;-89
2024/01/27 06:13:26;;;;;;;25.37;4.33;;;2.10;99.90;;;;;;5008866;28;20432;-88
2024/01/27 06:15:52;;;;;;;25.15;4.43;;;2.10;99.90;;;;;;5009540;28;20439;-89
2024/01/27 06:18:18;;;;;;;27.45;4.57;;;2.20;99.90;;;;;;5026432;28;20415;-88
2024/01/27 06:20:44;;;;;;;29.73;5.00;;;2.20;99.90;;;;;;5007710;28;20404;-88
2024/01/27 06:23:10;;;;;;;28.67;5.25;;;2.30;99.90;;;;;;5009949;28;20496;-88
2024/01/27 06:25:35;;;;;;;30.88;4.65;;;2.20;99.90;;;;;;5018739;28;20405;-88
2024/01/27 06:28:01;;;;;;;32.30;4.10;;;2.30;99.90;;;;;;5033425;28;20397;-88
2024/01/27 06:30:27;;;;;;;33.30;5.37;;;2.70;99.90;;;;;;5047312;28;20554;-89
2024/01/27 06:32:52;;;;;;;30.15;5.82;;;2.30;99.90;;;;;;5049056;28;20452;-88
2024/01/27 06:35:19;;;;;;;31.27;4.43;;;2.30;99.90;;;;;;5048154;28;20759;-88
2024/01/27 06:37:44;;;;;;;28.83;4.97;;;2.30;99.90;;;;;;5048221;28;20429;-89
2024/01/27 06:40:10;;;;;;;38.57;5.20;;;2.30;99.90;;;;;;5041730;28;20421;-88
2024/01/27 06:42:36;;;;;;;33.28;5.18;;;2.40;99.90;;;;;;5016638;28;20407;-89
2024/01/27 06:45:02;;;;;;;31.07;5.10;;;2.40;99.90;;;;;;5021583;28;20533;-88
2024/01/27 06:47:27;;;;;;;35.07;5.37;;;2.40;99.90;;;;;;5026894;28;20416;-88
2024/01/27 06:49:53;;;;;;;27.25;4.63;;;2.50;99.90;;;;;;5033483;28;20397;-92
2024/01/27 06:52:18;;;;;;;35.40;5.93;;;2.40;99.90;;;;;;5023604;28;20400;-87
2024/01/27 06:54:44;;;;;;;29.27;5.30;;;2.50;99.90;;;;;;5022253;28;20413;-88
2024/01/27 06:57:20;;;;;;;32.08;5.45;;;2.50;99.90;;;;;;5023773;28;20457;-87
2024/01/27 06:59:53;;;;;;;37.92;5.55;;;2.50;99.90;;;;;;5019285;28;20409;-88
2024/01/27 07:02:28;;;;;;;31.17;5.90;;;2.50;99.90;;;;;;5032832;28;20405;-88
2024/01/27 07:04:55;;;;;;;33.38;5.50;;;2.60;99.90;;;;;;5030898;28;20421;-88
2024/01/27 07:07:27;;;;;;;32.47;5.55;;;2.80;99.90;;;;;;5032673;28;20405;-88
2024/01/27 07:09:55;;;;;;;35.85;6.38;;;2.70;99.90;;;;;;5048874;28;20931;-88
2024/01/27 07:12:20;;;;;;;35.83;5.95;;;2.70;99.90;;;;;;5030770;28;20405;-90
2024/01/27 07:14:46;;;;;;;37.38;6.80;;;2.60;99.90;;;;;;5032980;28;20413;-88
2024/01/27 07:17:12;;;;;;;36.73;7.23;;;2.60;99.90;;;;;;5030759;28;20416;-89
2024/01/27 07:19:37;;;;;;;34.03;5.87;;;2.60;99.90;;;;;;5032367;28;20406;-88
2024/01/27 07:22:06;;;;;;;33.88;5.55;;;2.60;99.90;;;;;;5030759;28;20405;-88
2024/01/27 07:24:31;;;;;;;33.65;5.57;;;2.90;99.90;;;;;;5032476;28;20508;-87
2024/01/27 07:27:00;;;;;;;38.80;5.75;;;2.60;99.90;;;;;;5012592;28;20970;-87
2024/01/27 07:29:26;;;;;;;28.38;6.65;;;2.60;99.90;;;;;;5011428;28;20422;-88
2024/01/27 07:31:52;;;;;;;37.53;7.50;;;2.60;99.90;;;;;;5012500;28;20407;-87
2024/01/27 07:34:17;;;;;;;35.28;7.20;;;2.50;99.90;;;;;;5027027;28;20415;-87
2024/01/27 07:36:44;;;;;;;42.30;6.80;;;2.50;99.90;;;;;;5012770;28;20446;-88
2024/01/27 07:39:09;;;;;;;34.13;7.30;;;2.60;99.90;;;;;;5009791;28;20414;-89
2024/01/27 07:41:35;;;;;;;29.37;6.37;;;2.60;99.90;;;;;;5012177;28;20415;-89
2024/01/27 07:44:09;;;;;;;31.40;6.67;;;2.60;99.90;;;;;;5010920;28;20427;-89
2024/01/27 07:46:34;;;;;;;32.03;6.05;;;2.60;99.90;;;;;;5011293;28;20392;-88
2024/01/27 07:49:02;;;;;;;33.47;6.30;;;2.80;99.90;;;;;;5017796;28;20398;-89
2024/01/27 07:51:28;;;;;;;29.05;6.10;;;2.70;99.90;;;;;;5034540;28;20408;-88
2024/01/27 07:53:54;;;;;;;33.47;6.43;;;3.10;99.90;;;;;;5013788;28;20906;-88
2024/01/27 07:56:19;;;;;;;34.08;5.03;;;2.70;99.90;;;;;;5010294;28;20415;-88
2024/01/27 07:58:45;;;;;;;30.98;4.80;;;2.80;99.90;;;;;;5011873;28;20914;-88
2024/01/27 08:01:15;;;;;;;33.90;5.17;;;2.80;99.90;;;;;;5026396;28;20418;-86
2024/01/27 08:03:41;;;;;;;31.67;5.68;;;2.80;99.90;;;;;;5011087;28;20427;-88
2024/01/27 08:06:09;;;;;;;35.38;5.57;;;3.30;99.90;;;;;;5011067;28;20418;-88
2024/01/27 08:08:35;;;;;;;27.88;5.05;;;2.90;99.90;;;;;;5040583;28;20926;-87
2024/01/27 08:11:01;;;;;;;29.97;5.13;;;2.90;99.90;;;;;;5031734;28;20417;-87
2024/01/27 08:13:26;;;;;;;30.00;4.50;;;3.00;99.90;;;;;;5046229;28;20410;-88
2024/01/27 08:15:52;;;;;;;25.92;4.38;;;3.00;99.90;;;;;;5048392;28;20432;-89
2024/01/27 08:18:18;;;;;;;28.73;5.07;;;3.00;99.90;;;;;;5029774;28;20551;-87
2024/01/27 08:20:43;;;;;;;27.70;4.83;;;3.20;99.90;;;;;;5031158;28;20425;-89
2024/01/27 08:23:09;;;;;;;29.88;4.75;;;3.10;99.90;;;;;;5031053;28;20456;-88
2024/01/27 08:25:35;;;;;;;27.67;4.28;;;3.20;99.90;;;;;;5030100;28;20402;-88
2024/01/27 08:28:00;;;;;;;33.60;4.30;;;3.20;99.90;;;;;;5031605;28;20414;-89
2024/01/27 08:30:26;;;;;;;32.67;4.88;;;3.20;99.90;;;;;;5023635;28;20398;-88
2024/01/27 08:32:51;;;;;;;29.48;4.55;;;3.30;99.90;;;;;;5047968;28;20784;-88
2024/01/27 08:35:17;;;;;;;26.43;4.27;;;3.60;99.90;;;;;;5045626;28;20417;-88
2024/01/27 08:37:43;;;;;;;24.05;4.55;;;3.40;99.90;;;;;;5031047;28;20412;-89
2024/01/27 08:40:08;;;;;;;29.23;4.00;;;3.50;99.90;;;;;;5028642;28;20496;-87
2024/01/27 08:42:34;;;;;;;25.63;4.17;;;3.50;99.90;;;;;;5010742;28;20963;-89
2024/01/27 08:45:00;;;;;;;28.13;3.63;;;3.80;99.90;;;;;;5011443;28;20477;-89
2024/01/27 08:47:25;;;;;;;26.60;3.78;;;3.90;99.90;;;;;;5009991;28;20411;-88
2024/01/27 08:49:51;;;;;;;24.92;3.63;;;3.80;99.90;;;;;;5011901;28;20807;-89
2024/01/27 08:52:17;;;;;;;26.90;3.83;;;3.90;99.90;;;;;;5009802;28;20413;-89
2024/01/27 08:54:43;;;;;;;26.27;4.73;;;4.50;99.90;;;;;;5011693;28;20461;-88
2024/01/27 08:57:08;;;;;;;23.58;4.07;;;4.00;99.90;;;;;;5009499;28;20447;-88
2024/01/27 08:59:35;;;;;;;25.60;4.10;;;4.20;99.90;;;;;;5027437;28;20446;-88
2024/01/27 09:02:01;;;;;;;23.40;3.95;;;4.30;99.90;;;;;;5011125;28;20743;-90
2024/01/27 09:04:27;;;;;;;24.23;3.92;;;4.20;99.90;;;;;;5009910;28;20470;-89
2024/01/27 09:06:53;;;;;;;24.58;4.75;;;4.30;99.90;;;;;;5027513;28;20415;-90
2024/01/27 09:09:18;;;;;;;23.90;4.13;;;4.40;99.90;;;;;;5009464;28;20399;-89
2024/01/27 09:11:45;;;;;;;27.35;4.65;;;4.60;99.90;;;;;;5011665;28;20410;-90
2024/01/27 09:14:11;;;;;;;28.90;4.50;;;4.50;99.90;;;;;;5017053;28;20401;-89
2024/01/27 09:16:37;;;;;;;25.00;4.80;;;4.50;99.90;;;;;;5047988;28;20467;-90
2024/01/27 09:19:02;;;;;;;21.47;4.20;;;4.60;99.90;;;;;;5046081;28;20405;-89
2024/01/27 09:21:30;;;;;;;22.10;4.87;;;4.90;99.90;;;;;;5012545;28;20419;-90
2024/01/27 09:23:56;;;;;;;22.05;4.60;;;4.70;99.90;;;;;;5011273;28;20430;-89
2024/01/27 09:26:24;;;;;;;24.13;4.82;;;4.80;99.90;;;;;;4992557;28;20528;-91
2024/01/27 09:28:54;;;;;;;22.98;4.90;;;4.90;99.90;;;;;;5011075;28;20447;-89
2024/01/27 09:31:22;;;;;;;31.13;5.72;;;4.90;99.90;;;;;;5008934;28;20461;-88
2024/01/27 09:33:50;;;;;;;24.83;5.10;;;5.00;99.90;;;;;;5011098;28;20418;-90
2024/01/27 09:36:15;;;;;;;22.27;5.43;;;5.10;99.90;;;;;;5009641;28;20457;-88
2024/01/27 09:38:41;;;;;;;26.10;5.55;;;5.10;99.90;;;;;;5010376;28;20416;-90
2024/01/27 09:41:07;;;;;;;25.57;5.47;;;5.20;99.90;;;;;;5010938;28;20783;-90
2024/01/27 09:43:33;;;;;;;25.48;5.43;;;5.30;99.90;;;;;;5009600;28;21016;-89
2024/01/27 09:45:59;;;;;;;25.05;5.28;;;5.30;99.90;;;;;;5011001;28;20412;-90
2024/01/27 09:48:25;;;;;;;22.73;4.85;;;5.50;99.90;;;;;;5009560;28;20553;-90
2024/01/27 09:50:53;;;;;;;20.23;4.30;;;5.20;99.90;;;;;;5010775;28;20914;-91
2024/01/27 09:53:19;;;;;;;24.83;5.20;;;5.60;99.90;;;;;;5016388;28;20788;-90
2024/01/27 09:55:44;;;;;;;20.60;4.57;;;5.80;99.90;;;;;;5030988;28;20406;-91
2024/01/27 09:58:11;;;;;;;24.85;4.72;;;6.30;99.90;;;;;;5030175;28;20433;-88
2024/01/27 10:00:37;;;;;;;17.97;4.03;;;6.60;99.90;;;;;;5029171;28;20409;-89
2024/01/27 10:03:05;;;;;;;21.13;4.10;;;6.50;99.90;;;;;;5030552;28;20417;-92
2024/01/27 10:05:32;;;;;;;19.38;3.28;;;7.10;99.90;;;;;;5044716;28;20486;-89
2024/01/27 10:07:58;;;;;;;14.93;3.30;;;7.40;99.90;;;;;;5030773;28;20405;-90
2024/01/27 10:10:23;;;;;;;21.23;4.03;;;7.60;99.90;;;;;;5028430;28;20402;-89
2024/01/27 10:12:55;;;;;;;16.83;3.30;;;7.90;99.90;;;;;;5030756;28;20506;-90
2024/01/27 10:15:22;;;;;;;17.60;3.35;;;7.80;99.90;;;;;;5030130;28;21042;-90
2024/01/27 10:17:48;;;;;;;19.13;3.42;;;7.90;99.90;;;;;;5032344;28;20428;-90
2024/01/27 10:20:18;;;;;;;21.27;4.00;;;8.10;99.90;;;;;;5034695;28;20888;-89
2024/01/27 10:22:45;;;;;;;18.90;4.00;;;8.40;99.90;;;;;;5032715;28;20965;-91
2024/01/27 10:25:11;;;;;;;19.63;4.07;;;8.20;99.90;;;;;;5034428;28;20479;-91
2024/01/27 10:27:37;;;;;;;15.23;3.25;;;8.60;99.90;;;;;;5029515;28;20959;-92
2024/01/27 10:30:04;;;;;;;18.65;4.20;;;8.30;99.90;;;;;;5021997;28;20401;-93
2024/01/27 10:32:30;;;;;;;20.23;4.67;;;8.40;99.90;;;;;;5032985;28;20440;-92
2024/01/27 10:35:08;;;;;;;20.17;5.20;;;8.40;99.90;;;;;;5049155;28;20924;-92
2024/01/27 10:37:37;;;;;;;18.25;5.28;;;8.80;99.90;;;;;;5034258;28;20461;-90
2024/01/27 10:40:10;;;;;;;20.10;4.32;;;8.60;99.90;;;;;;5032028;28;20416;-89
2024/01/27 10:42:37;;;;;;;18.73;3.90;;;8.70;99.90;;;;;;5034320;28;20923;-90
2024/01/27 10:45:04;;;;;;;20.98;3.92;;;8.80;99.90;;;;;;5042767;28;20432;-90
2024/01/27 10:47:31;;;;;;;17.63;3.38;;;8.90;99.90;;;;;;5045412;28;20421;-92
2024/01/27 10:49:59;;;;;;;18.20;3.95;;;9.00;99.90;;;;;;5013063;28;20920;-91
2024/01/27 10:52:31;;;;;;;21.15;3.83;;;9.10;99.90;;;;;;5012374;28;20488;-90
2024/01/27 10:55:03;;;;;;;15.23;3.30;;;9.20;99.90;;;;;;5030834;28;20419;-92
2024/01/27 10:57:34;;;;;;;18.48;3.58;;;9.30;99.90;;;;;;5025559;28;20409;-91
2024/01/27 11:00:08;;;;;;;20.00;3.63;;;9.30;99.90;;;;;;5032922;28;20416;-90
2024/01/27 11:02:35;;;;;;;19.20;3.65;;;9.30;99.90;;;;;;5030134;28;20435;-89
2024/01/27 11:05:03;;;;;;;15.27;3.53;;;9.30;99.90;;;;;;5032504;28;21130;-90
2024/01/27 11:07:35;;;;;;;22.63;4.15;;;9.30;99.90;;;;;;5033174;28;20417;-92
2024/01/27 11:10:01;;;;;;;18.02;3.72;;;9.40;99.90;;;;;;5031495;28;20409;-93
2024/01/27 11:12:28;;;;;;;18.23;3.33;;;9.50;99.90;;;;;;5033680;28;20403;-89
2024/01/27 11:14:54;;;;;;;15.75;3.28;;;9.50;99.90;;;;;;5031080;28;20398;-90
2024/01/27 11:17:20;;;;;;;14.63;3.03;;;9.60;99.90;;;;;;5032874;28;20411;-92
2024/01/27 11:19:46;;;;;;;17.58;3.40;;;9.70;99.90;;;;;;5047427;28;20398;-91
2024/01/27 11:22:28;;;;;;;18.73;3.85;;;9.70;99.90;;;;;;5032540;28;20428;-92
2024/01/27 11:25:06;;;;;;;18.95;3.33;;;9.80;99.90;;;;;;5032776;28;20433;-90
2024/01/27 11:27:32;;;;;;;17.38;3.25;;;10.00;99.90;;;;;;5031087;28;20421;-93
2024/01/27 11:29:58;;;;;;;17.08;3.40;;;10.10;99.90;;;;;;5032418;28;20414;-92
2024/01/27 11:32:25;;;;;;;18.03;3.63;;;10.40;99.90;;;;;;5030573;28;20414;-90
2024/01/27 11:34:52;;;;;;;17.58;3.38;;;10.30;99.90;;;;;;5032812;28;20462;-91
2024/01/27 11:37:24;;;;;;;18.00;3.45;;;10.50;99.90;;;;;;5022761;28;20486;-91
2024/01/27 11:39:49;;;;;;;16.90;2.80;;;10.50;99.90;;;;;;5011684;28;20419;-92
2024/01/27 11:42:16;;;;;;;15.83;3.37;;;10.70;99.90;;;;;;5030775;28;20419;-94
2024/01/27 11:44:42;;;;;;;15.88;3.05;;;10.50;99.90;;;;;;5010984;28;20431;-92
2024/01/27 11:47:16;;;;;;;16.95;3.20;;;10.40;99.90;;;;;;5012876;28;20400;-92
2024/01/27 11:49:56;;;;;;;20.23;3.47;;;10.40;99.90;;;;;;5031771;28;20422;-93
2024/01/27 11:52:23;;;;;;;15.50;3.03;;;10.50;99.90;;;;;;5024439;28;20423;-93
2024/01/27 11:54:59;;;;;;;16.90;3.03;;;10.20;99.90;;;;;;5014024;28;20415;-92
2024/01/27 11:57:26;;;;;;;16.75;2.80;;;10.10;99.90;;;;;;5022253;28;20421;-93
2024/01/27 11:59:52;;;;;;;17.65;3.38;;;10.50;99.90;;;;;;5032465;28;20503;-91
2024/01/27 12:02:19;;;;;;;18.15;3.38;;;10.70;99.90;;;;;;5046841;28;20440;-91
2024/01/27 12:04:45;;;;;;;16.05;2.97;;;11.00;99.90;;;;;;5025744;28;20433;-92
2024/01/27 12:07:11;;;;;;;14.60;3.07;;;11.00;99.90;;;;;;5028568;28;20504;-92
2024/01/27 12:09:37;;;;;;;18.15;3.40;;;11.10;99.90;;;;;;5048756;28;20602;-94
2024/01/27 12:12:04;;;;;;;15.38;3.05;;;11.30;99.90;;;;;;5030941;28;20499;-91
2024/01/27 12:14:47;;;;;;;14.57;2.90;;;11.60;99.90;;;;;;5031387;28;20488;-92
2024/01/27 12:17:13;;;;;;;15.23;3.20;;;12.00;99.90;;;;;;5032406;28;20773;-92
2024/01/27 12:19:39;;;;;;;16.95;3.08;;;12.30;99.90;;;;;;5029786;28;20404;-93
2024/01/27 12:22:19;;;;;;;18.00;3.00;;;12.70;99.90;;;;;;5031568;28;20397;-92
2024/01/27 12:24:45;;;;;;;16.08;2.72;;;12.60;99.90;;;;;;5018742;28;20446;-90
2024/01/27 12:27:10;;;;;;;16.07;3.07;;;12.70;99.90;;;;;;5011943;28;20409;-92
2024/01/27 12:29:36;;;;;;;16.80;3.08;;;12.40;99.90;;;;;;5012316;28;20435;-92
2024/01/27 12:32:02;;;;;;;14.50;3.05;;;12.40;99.90;;;;;;5010372;28;20997;-92
2024/01/27 12:34:28;;;;;;;15.37;3.00;;;12.40;99.90;;;;;;5012000;28;20422;-93
2024/01/27 12:36:54;;;;;;;17.50;3.47;;;12.30;99.90;;;;;;5028555;28;20421;-92
2024/01/27 12:39:20;;;;;;;19.60;2.97;;;12.40;99.90;;;;;;5031318;28;20413;-91
2024/01/27 12:41:46;;;;;;;17.13;3.40;;;12.20;99.90;;;;;;5043290;28;20766;-92